Decoded Metar for YPKG (KALGOORLIE in AUSTRALIA) (IATA:KGI) | Meteo·Mobile Aviation Weather
aviador You're here:

YPKG Decoded Metar

KALGOORLIE in AUSTRALIA
Report Time2019-04-23 08:30:00
UTC Time2019-04-23 08:48:23
Flight Rules vfr VFR
Wind090° at 08 kt
W.Decomp.*RWY 11: 7.5 kt HW 2.9 kt LCW
RWY 36: 0.1 kt HW 8.0 kt RCW
Visibility9999 m
Phenomena:N/A
Clouds:N/A
Expected CloudBase > 7,600 ft AGL from Temp-Dew spread
CeilingNone
Temp23°C (ISA +10)
Dew Point04°C (29% RH)
AAT18.8°C
QNH1024 hPa
Density Alt2,129 ft
Elevation1,181 ft
Report Wrong Elevation
Raw Report
YPKG 230830Z AUTO 09008KT 9999 // NCD 23/04 Q1024 RF00.0/000.0=

Extra information for YPKG:More info

Metar Taf Metar & Taf Last 4 Metars F.Rules Stats Wind Profile Meteogram Temp Stats Airport Information Weather charts Add Link Nearby VenuesMetar ALERT Operation Metar Decoded Social comments